Time;durP1;ratioP1;P1;durP2;ratioP2;P2;SDS_P1;SDS_P2;PMS_P1;PMS_P2;Temp;Humidity;BMP_temperature;BMP_pressure;BME280_temperature;BME280_humidity;BME280_pressure;Samples;Min_cycle;Max_cycle;Signal;HPM_P1;HPM_P2
2021/07/31 00:02:10;;;;;;;5.18;2.42;;;;;;;19.12;67.22;98240.72;5034278;28;20021;-68
2021/07/31 00:04:35;;;;;;;3.08;2.00;;;;;;;19.08;67.48;98239.66;5034793;28;20032;-67
2021/07/31 00:07:01;;;;;;;3.38;1.98;;;;;;;18.99;67.75;98247.56;5036271;28;20112;-68
2021/07/31 00:09:26;;;;;;;3.25;1.85;;;;;;;18.83;67.16;98222.06;5041877;28;20021;-67
2021/07/31 00:11:51;;;;;;;3.42;1.80;;;;;;;18.94;66.71;98256.63;5034486;28;20382;-68
2021/07/31 00:14:17;;;;;;;3.15;1.63;;;;;;;18.94;66.61;98267.59;5042645;28;20119;-68
2021/07/31 00:16:43;;;;;;;5.25;1.90;;;;;;;18.83;66.82;98258.50;5034650;28;20544;-68
2021/07/31 00:19:08;;;;;;;3.08;1.90;;;;;;;18.87;66.96;98268.94;5037892;28;20029;-67
2021/07/31 00:21:33;;;;;;;3.95;1.98;;;;;;;18.79;67.39;98264.81;5050460;28;20029;-68
2021/07/31 00:23:59;;;;;;;3.67;2.05;;;;;;;18.70;68.08;98266.38;5033506;28;20025;-68
2021/07/31 00:26:24;;;;;;;3.70;2.30;;;;;;;18.64;68.36;98270.22;5047536;28;20025;-68
2021/07/31 00:28:49;;;;;;;6.05;2.30;;;;;;;18.65;68.37;98269.94;5037055;28;20024;-68
2021/07/31 00:31:15;;;;;;;5.97;2.22;;;;;;;18.60;68.45;98257.06;5041584;28;20055;-67
2021/07/31 00:33:40;;;;;;;4.60;1.92;;;;;;;18.74;68.51;98262.03;5017277;28;20064;-68
2021/07/31 00:36:05;;;;;;;2.85;1.98;;;;;;;18.74;68.65;98257.38;5034605;28;20052;-69
2021/07/31 00:38:30;;;;;;;4.28;2.15;;;;;;;18.83;68.09;98261.25;5033940;28;20143;-67
2021/07/31 00:40:56;;;;;;;2.45;1.88;;;;;;;18.73;68.37;98246.66;5033704;28;20027;-68
2021/07/31 00:43:21;;;;;;;4.05;2.17;;;;;;;18.71;68.41;98243.38;5033358;28;20025;-67
2021/07/31 00:45:47;;;;;;;3.47;2.08;;;;;;;18.81;68.33;98265.34;5035616;28;20509;-67
2021/07/31 00:48:13;;;;;;;3.55;2.22;;;;;;;18.78;68.81;98265.88;5038659;28;20510;-68
2021/07/31 00:50:38;;;;;;;3.50;2.50;;;;;;;18.74;69.02;98267.50;5043856;28;20107;-68
2021/07/31 00:53:04;;;;;;;6.20;2.42;;;;;;;18.75;68.79;98275.47;5017878;28;20036;-68
2021/07/31 00:55:30;;;;;;;3.17;2.00;;;;;;;18.79;68.77;98267.56;5033799;28;20470;-68
2021/07/31 00:57:57;;;;;;;3.42;2.30;;;;;;;18.73;69.05;98265.84;5043090;28;20092;-68
2021/07/31 01:00:23;;;;;;;3.40;2.10;;;;;;;18.69;69.09;98264.75;5053104;28;20363;-68
2021/07/31 01:02:48;;;;;;;4.53;2.45;;;;;;;18.64;69.53;98268.28;5051868;28;20029;-68
2021/07/31 01:05:14;;;;;;;3.67;2.13;;;;;;;18.51;69.77;98268.78;5024805;28;20028;-68
2021/07/31 01:07:40;;;;;;;3.53;2.13;;;;;;;18.47;69.36;98273.16;5037544;28;20559;-67
2021/07/31 01:10:06;;;;;;;4.00;2.30;;;;;;;18.40;69.68;98271.50;5034756;28;20049;-68
2021/07/31 01:12:32;;;;;;;3.35;2.25;;;;;;;18.15;70.10;98254.94;5032787;28;20446;-68
2021/07/31 01:14:57;;;;;;;3.90;2.20;;;;;;;18.14;69.78;98270.53;5032560;28;20029;-68
2021/07/31 01:17:23;;;;;;;4.80;1.83;;;;;;;18.11;69.94;98270.25;5035680;28;20525;-68
2021/07/31 01:19:48;;;;;;;3.70;1.75;;;;;;;17.98;70.20;98266.06;5051352;28;20032;-68
2021/07/31 01:22:14;;;;;;;3.42;2.10;;;;;;;17.97;70.20;98272.63;5051572;28;20100;-68
2021/07/31 01:24:39;;;;;;;3.08;1.77;;;;;;;18.00;70.28;98268.53;5052211;28;20158;-68
2021/07/31 01:27:05;;;;;;;4.13;1.92;;;;;;;18.04;69.89;98275.94;5040782;28;20025;-68
2021/07/31 01:29:30;;;;;;;7.28;1.95;;;;;;;18.07;69.77;98280.91;5033763;28;20025;-67
2021/07/31 01:31:55;;;;;;;5.05;2.10;;;;;;;18.01;69.55;98272.94;5035437;28;20068;-68
2021/07/31 01:34:21;;;;;;;7.72;2.28;;;;;;;18.09;69.55;98273.25;5032124;28;20418;-68
2021/07/31 01:36:46;;;;;;;3.03;1.70;;;;;;;18.00;69.40;98263.06;5032585;28;20056;-68
2021/07/31 01:39:11;;;;;;;3.95;2.13;;;;;;;18.09;69.36;98281.47;5041085;28;20475;-68
2021/07/31 01:41:36;;;;;;;4.15;1.50;;;;;;;18.02;69.39;98278.13;5039599;28;20048;-68
2021/07/31 01:44:02;;;;;;;2.67;1.80;;;;;;;18.00;69.14;98277.59;5049466;28;20021;-67
2021/07/31 01:46:27;;;;;;;3.28;1.55;;;;;;;17.83;69.15;98252.28;5016785;28;20190;-67
2021/07/31 01:48:53;;;;;;;3.00;1.63;;;;;;;17.90;69.38;98286.56;5035316;28;20037;-68
2021/07/31 01:51:18;;;;;;;3.17;1.80;;;;;;;17.75;70.28;98270.81;5049495;28;20029;-68
2021/07/31 01:53:44;;;;;;;5.43;1.90;;;;;;;17.72;70.50;98278.72;5038081;28;20033;-67
2021/07/31 01:56:09;;;;;;;1.63;1.45;;;;;;;17.63;70.55;98275.66;5033682;28;20528;-68
2021/07/31 01:58:34;;;;;;;2.92;1.88;;;;;;;17.74;69.92;98287.50;5033188;28;20493;-68
2021/07/31 02:01:00;;;;;;;3.33;1.50;;;;;;;17.71;70.01;98283.38;5031892;28;20105;-68
2021/07/31 02:03:26;;;;;;;2.20;1.65;;;;;;;17.80;69.61;98286.47;5032681;28;20025;-68
2021/07/31 02:05:52;;;;;;;5.13;1.60;;;;;;;17.81;69.43;98285.38;5049643;22;20041;-69
2021/07/31 02:08:18;;;;;;;4.00;2.10;;;;;;;17.78;69.74;98290.53;5033147;28;20056;-71
2021/07/31 02:10:44;;;;;;;3.50;1.58;;;;;;;17.70;69.99;98291.84;5032677;28;20470;-71
2021/07/31 02:13:09;;;;;;;3.75;1.75;;;;;;;17.61;70.51;98287.97;5039094;28;20110;-69
2021/07/31 02:15:39;;;;;;;3.13;1.52;;;;;;;17.58;70.20;98288.47;5037213;28;20025;-69
2021/07/31 02:18:05;;;;;;;2.72;1.33;;;;;;;17.62;69.13;98295.88;5027166;28;20490;-69
2021/07/31 02:20:30;;;;;;;3.22;1.58;;;;;;;17.63;68.44;98277.56;5038881;28;20036;-70
2021/07/31 02:22:55;;;;;;;6.93;1.52;;;;;;;17.72;67.98;98292.41;5054793;28;20036;-70
2021/07/31 02:25:20;;;;;;;9.55;1.67;;;;;;;17.50;68.47;98265.16;5057829;28;20477;-70
2021/07/31 02:27:46;;;;;;;2.55;1.25;;;;;;;17.54;68.62;98285.44;5054887;28;20029;-70
2021/07/31 02:30:12;;;;;;;7.40;1.77;;;;;;;17.46;68.81;98291.38;5044957;28;20429;-70
2021/07/31 02:32:37;;;;;;;4.93;1.80;;;;;;;17.41;68.85;98288.59;5056993;28;20028;-70
2021/07/31 02:35:03;;;;;;;3.50;1.38;;;;;;;17.36;69.08;98289.38;5039026;28;20017;-70
2021/07/31 02:37:28;;;;;;;2.63;1.40;;;;;;;17.26;68.67;98287.38;5055029;28;20040;-69
2021/07/31 02:39:53;;;;;;;5.00;1.70;;;;;;;17.17;69.08;98282.66;5043285;28;20026;-69
2021/07/31 02:42:19;;;;;;;8.10;1.42;;;;;;;17.15;68.99;98288.38;5044904;28;20094;-69
2021/07/31 02:44:44;;;;;;;2.92;1.40;;;;;;;17.08;69.16;98285.84;5039989;28;20405;-69
2021/07/31 02:47:10;;;;;;;3.45;1.60;;;;;;;17.06;69.14;98276.25;5038998;28;20021;-70
2021/07/31 02:49:35;;;;;;;2.17;1.40;;;;;;;16.89;69.67;98275.53;5043521;28;20033;-70
2021/07/31 02:52:00;;;;;;;5.13;1.40;;;;;;;16.88;70.17;98282.09;5043295;28;20033;-70
2021/07/31 02:54:26;;;;;;;3.88;1.70;;;;;;;16.89;69.92;98283.72;5045076;28;20025;-69
2021/07/31 02:56:51;;;;;;;2.45;1.33;;;;;;;16.82;70.04;98282.03;5023885;28;20493;-69
2021/07/31 02:59:16;;;;;;;3.53;1.38;;;;;;;16.67;69.58;98268.16;5021982;28;20025;-69
2021/07/31 03:01:41;;;;;;;8.38;1.38;;;;;;;16.67;69.24;98292.75;5038998;28;20036;-69
2021/07/31 03:04:07;;;;;;;3.95;1.30;;;;;;;16.61;69.04;98291.88;5049263;28;20116;-69
2021/07/31 03:06:32;;;;;;;3.20;1.40;;;;;;;16.54;68.91;98290.41;5051943;28;20033;-69
2021/07/31 03:08:57;;;;;;;3.15;1.05;;;;;;;16.50;69.43;98286.53;5048051;28;20036;-70
2021/07/31 03:11:23;;;;;;;4.10;1.50;;;;;;;16.39;69.44;98293.78;5039432;28;20364;-69
2021/07/31 03:13:48;;;;;;;5.35;1.20;;;;;;;16.21;69.72;98273.06;5038162;28;20021;-69
2021/07/31 03:16:14;;;;;;;5.60;1.58;;;;;;;16.25;69.50;98290.59;5039900;28;20057;-69
2021/07/31 03:18:39;;;;;;;2.70;1.20;;;;;;;16.22;69.43;98288.38;5041181;28;20032;-69
2021/07/31 03:21:04;;;;;;;4.55;1.30;;;;;;;16.16;69.89;98290.19;5056780;28;20028;-70
2021/07/31 03:23:29;;;;;;;7.13;1.40;;;;;;;16.11;69.99;98294.75;5038194;28;20030;-69
2021/07/31 03:25:57;;;;;;;3.00;1.23;;;;;;;16.16;69.55;98284.72;5047481;28;20033;-69
2021/07/31 03:28:22;;;;;;;2.38;1.20;;;;;;;16.13;70.14;98284.41;5038001;28;20021;-69
2021/07/31 03:30:47;;;;;;;3.72;1.23;;;;;;;16.08;71.17;98284.34;5046781;28;20036;-69
2021/07/31 03:33:13;;;;;;;4.95;1.52;;;;;;;15.91;72.09;98274.31;5045530;28;20036;-69
2021/07/31 03:35:41;;;;;;;4.28;1.30;;;;;;;15.96;72.07;98295.38;5036141;28;20410;-69
2021/07/31 03:38:07;;;;;;;4.95;1.40;;;;;;;15.89;71.86;98294.72;5039170;28;20037;-69
2021/07/31 03:40:32;;;;;;;5.30;1.70;;;;;;;15.72;72.26;98267.47;5037765;28;20021;-69
2021/07/31 03:42:58;;;;;;;6.68;1.42;;;;;;;15.68;71.29;98274.47;5035088;28;20471;-69
2021/07/31 03:45:24;;;;;;;3.80;1.30;;;;;;;15.57;71.93;98277.03;5041401;28;20111;-69
2021/07/31 03:47:49;;;;;;;5.68;1.38;;;;;;;15.51;72.14;98286.22;5055069;28;20392;-71
2021/07/31 03:50:14;;;;;;;4.05;1.30;;;;;;;15.53;71.77;98280.50;5042635;28;20122;-69
2021/07/31 03:52:40;;;;;;;3.70;1.40;;;;;;;15.50;71.94;98283.72;5052688;28;20040;-69
2021/07/31 03:55:06;;;;;;;9.68;1.60;;;;;;;15.50;71.79;98289.19;5030287;28;20028;-69
2021/07/31 03:57:32;;;;;;;3.10;1.30;;;;;;;15.44;72.18;98282.00;5046365;28;20047;-69
2021/07/31 03:59:57;;;;;;;10.05;1.55;;;;;;;15.39;72.87;98287.38;5057610;28;20030;-69
2021/07/31 04:02:22;;;;;;;3.17;1.58;;;;;;;15.20;73.52;98281.31;5039877;28;20032;-70
2021/07/31 04:04:48;;;;;;;6.15;1.50;;;;;;;15.14;73.90;98285.84;5058019;28;20036;-71
2021/07/31 04:07:13;;;;;;;7.43;1.30;;;;;;;15.17;74.57;98288.09;5064677;28;20075;-69
2021/07/31 04:09:39;;;;;;;4.63;1.50;;;;;;;15.08;74.98;98295.00;5063102;28;20017;-69
2021/07/31 04:12:04;;;;;;;5.95;1.40;;;;;;;15.05;75.19;98296.31;5056246;28;20482;-70
2021/07/31 04:14:30;;;;;;;1.83;1.10;;;;;;;15.03;74.37;98309.34;5053194;28;20108;-70
2021/07/31 04:16:55;;;;;;;2.60;1.13;;;;;;;14.92;74.79;98291.19;5046601;28;20025;-70
2021/07/31 04:19:21;;;;;;;5.68;1.30;;;;;;;15.12;74.03;98302.44;5062221;28;20379;-70
2021/07/31 04:21:46;;;;;;;2.90;1.33;;;;;;;15.25;72.34;98305.94;5060257;28;20052;-70
2021/07/31 04:24:12;;;;;;;2.15;1.33;;;;;;;15.19;72.24;98299.56;5048034;28;20108;-70
2021/07/31 04:26:37;;;;;;;4.88;1.40;;;;;;;15.43;72.07;98310.31;5068636;28;20029;-70
2021/07/31 04:29:02;;;;;;;6.70;1.60;;;;;;;15.42;71.86;98312.22;5070805;28;20017;-70
2021/07/31 04:31:28;;;;;;;4.03;1.30;;;;;;;15.52;71.09;98311.56;5067104;28;20296;-70
2021/07/31 04:33:56;;;;;;;3.33;1.50;;;;;;;15.57;70.28;98309.75;5068678;28;20025;-69
2021/07/31 04:36:21;;;;;;;4.22;1.20;;;;;;;15.66;70.25;98312.06;5067575;28;20029;-70
2021/07/31 04:38:46;;;;;;;6.22;1.23;;;;;;;15.73;69.63;98310.84;5061569;28;20068;-70
2021/07/31 04:41:11;;;;;;;7.53;1.33;;;;;;;15.76;69.54;98306.81;5060197;28;20029;-70
2021/07/31 04:43:37;;;;;;;6.35;0.98;;;;;;;15.91;69.13;98314.41;5056811;28;20388;-70
2021/07/31 04:46:02;;;;;;;2.97;1.13;;;;;;;15.96;69.47;98318.03;5054171;28;20089;-70
2021/07/31 04:48:28;;;;;;;5.93;1.80;;;;;;;15.99;69.83;98308.53;5042433;28;20044;-70
2021/07/31 04:50:58;;;;;;;4.97;1.35;;;;;;;16.09;69.66;98322.31;5053274;28;20051;-70
2021/07/31 04:53:24;;;;;;;3.22;1.10;;;;;;;16.11;69.36;98317.44;5059842;28;20052;-70
2021/07/31 04:55:50;;;;;;;6.32;1.77;;;;;;;16.15;69.13;98325.94;5046418;28;20025;-70
2021/07/31 04:58:15;;;;;;;4.22;1.20;;;;;;;16.20;69.10;98326.81;5048241;28;20021;-71
2021/07/31 05:00:42;;;;;;;5.80;1.10;;;;;;;16.28;68.42;98328.31;5046106;28;20666;-74
2021/07/31 05:03:09;;;;;;;4.03;1.50;;;;;;;16.37;67.97;98315.88;5021190;28;20044;-73
2021/07/31 05:05:36;;;;;;;3.92;1.27;;;;;;;16.42;67.28;98326.84;5037991;28;20499;-74
2021/07/31 05:08:03;;;;;;;5.60;1.08;;;;;;;16.50;66.77;98313.84;5040478;28;20033;-75
2021/07/31 05:10:28;;;;;;;6.97;1.40;;;;;;;16.58;66.44;98314.25;5025309;28;20478;-74
2021/07/31 05:12:54;;;;;;;3.38;1.25;;;;;;;16.73;66.46;98329.16;5041066;28;20187;-68
2021/07/31 05:15:20;;;;;;;3.97;1.27;;;;;;;16.75;65.74;98319.63;5048143;28;20601;-73
2021/07/31 05:17:45;;;;;;;7.45;1.27;;;;;;;16.89;65.18;98324.72;5043211;28;20088;-72
2021/07/31 05:20:11;;;;;;;5.07;1.02;;;;;;;16.95;64.36;98323.69;5048797;28;20390;-72
2021/07/31 05:22:36;;;;;;;3.75;0.95;;;;;;;17.14;63.66;98326.91;5037588;28;20033;-72
2021/07/31 05:25:03;;;;;;;2.08;0.90;;;;;;;17.23;63.46;98323.44;5030571;28;20013;-73
2021/07/31 05:27:28;;;;;;;5.05;1.02;;;;;;;17.38;62.82;98321.94;5036130;28;20028;-73
2021/07/31 05:29:54;;;;;;;3.85;0.88;;;;;;;17.50;62.09;98337.09;5025521;28;20493;-72
2021/07/31 05:32:19;;;;;;;5.40;1.52;;;;;;;17.53;62.11;98324.81;5042187;28;20100;-72
2021/07/31 05:34:44;;;;;;;3.28;1.10;;;;;;;17.74;61.83;98326.63;5045214;28;20033;-70
2021/07/31 05:37:09;;;;;;;4.88;1.10;;;;;;;17.98;60.83;98339.97;5028079;28;20066;-69
2021/07/31 05:39:35;;;;;;;3.42;1.08;;;;;;;18.00;60.84;98337.81;5045606;28;20524;-69
2021/07/31 05:42:05;;;;;;;4.45;1.13;;;;;;;18.08;60.79;98341.97;5043822;28;20029;-69
2021/07/31 05:44:32;;;;;;;1.77;0.70;;;;;;;18.17;59.65;98341.19;5040612;28;20030;-69
2021/07/31 05:46:57;;;;;;;5.90;0.98;;;;;;;18.12;60.41;98341.16;5039577;28;20394;-70
2021/07/31 05:49:22;;;;;;;2.35;0.88;;;;;;;18.26;60.02;98343.44;5043756;28;20029;-69
2021/07/31 05:51:47;;;;;;;3.10;1.00;;;;;;;18.43;59.54;98344.09;5041636;28;20052;-69
2021/07/31 05:54:13;;;;;;;1.83;0.73;;;;;;;18.41;60.20;98346.25;5041189;28;20091;-69
2021/07/31 05:56:38;;;;;;;10.05;1.00;;;;;;;18.77;59.59;98343.72;5042099;28;20425;-69
2021/07/31 05:59:03;;;;;;;3.33;1.02;;;;;;;18.96;58.45;98344.88;5043627;28;20025;-69
2021/07/31 06:01:34;;;;;;;3.50;0.95;;;;;;;18.78;58.49;98345.38;5042312;28;20474;-70
2021/07/31 06:04:01;;;;;;;5.72;1.05;;;;;;;19.26;57.56;98346.91;5043862;28;20104;-70
2021/07/31 06:06:26;;;;;;;4.05;0.90;;;;;;;19.29;56.66;98344.72;5042740;28;20033;-70
2021/07/31 06:08:51;;;;;;;2.95;1.13;;;;;;;19.47;56.71;98345.00;5041773;28;20044;-74
2021/07/31 06:11:16;;;;;;;5.93;1.50;;;;;;;19.46;56.52;98357.06;5025581;28;20028;-70
2021/07/31 06:13:42;;;;;;;5.68;0.98;;;;;;;19.51;56.24;98349.94;5042042;28;20033;-70
2021/07/31 06:16:09;;;;;;;3.90;1.05;;;;;;;19.43;56.56;98346.63;5040586;28;20017;-70
2021/07/31 06:18:34;;;;;;;9.27;0.93;;;;;;;19.81;55.81;98349.19;5036968;28;20029;-70
2021/07/31 06:20:59;;;;;;;3.08;1.02;;;;;;;20.12;55.48;98348.06;5045256;28;20047;-70
2021/07/31 06:23:25;;;;;;;1.77;0.77;;;;;;;20.54;53.32;98340.56;5044223;28;20029;-70
2021/07/31 06:25:50;;;;;;;2.40;0.80;;;;;;;20.55;53.04;98332.03;5045081;28;20565;-71
2021/07/31 06:28:15;;;;;;;3.67;0.82;;;;;;;20.64;52.97;98343.28;5038344;28;20028;-70
2021/07/31 06:30:44;;;;;;;7.45;0.90;;;;;;;20.95;51.90;98346.72;5036175;28;20044;-70
2021/07/31 06:33:11;;;;;;;5.90;0.88;;;;;;;21.60;50.17;98332.88;5041714;28;20029;-71
2021/07/31 06:35:37;;;;;;;3.63;0.73;;;;;;;22.23;49.50;98345.03;5039662;28;20082;-71
2021/07/31 06:38:02;;;;;;;2.55;0.90;;;;;;;22.88;47.29;98339.06;5039520;28;20033;-73
2021/07/31 06:40:27;;;;;;;5.35;0.90;;;;;;;24.22;45.32;98335.97;5043521;28;20633;-74
2021/07/31 06:42:52;;;;;;;4.95;0.80;;;;;;;25.32;42.28;98337.94;5036801;28;20028;-73
2021/07/31 06:45:18;;;;;;;5.43;0.90;;;;;;;25.18;41.56;98339.88;5023441;28;20579;-73
2021/07/31 06:47:43;;;;;;;2.17;0.82;;;;;;;26.88;38.06;98330.59;5039989;28;20040;-72
2021/07/31 06:50:10;;;;;;;3.35;0.82;;;;;;;27.34;36.41;98331.19;5025721;28;20036;-72
2021/07/31 06:52:37;;;;;;;4.55;0.70;;;;;;;26.78;37.02;98330.91;5039618;28;20099;-72
2021/07/31 06:55:02;;;;;;;4.20;0.90;;;;;;;26.25;38.52;98337.31;5044980;28;20064;-74
2021/07/31 06:57:28;;;;;;;5.93;0.95;;;;;;;27.76;35.75;98325.97;5041541;28;20407;-75
2021/07/31 06:59:53;;;;;;;6.82;0.95;;;;;;;26.43;37.70;98330.72;5049409;28;20032;-75
2021/07/31 07:02:18;;;;;;;7.50;0.68;;;;;;;27.72;35.89;98333.34;5047336;28;20540;-72
2021/07/31 07:04:44;;;;;;;3.63;0.93;;;;;;;29.07;33.05;98345.09;5046617;28;20109;-71
2021/07/31 07:07:09;;;;;;;3.70;0.98;;;;;;;26.10;37.81;98346.06;5048668;28;20413;-72
2021/07/31 07:09:34;;;;;;;8.15;1.35;;;;;;;26.25;37.59;98337.31;5048035;28;20108;-71
2021/07/31 07:11:59;;;;;;;1.95;0.90;;;;;;;29.82;33.51;98323.75;5051274;28;20036;-72
2021/07/31 07:14:25;;;;;;;2.13;0.60;;;;;;;30.06;31.15;98331.38;5049416;28;20037;-71
2021/07/31 07:16:50;;;;;;;3.38;0.90;;;;;;;29.52;32.43;98330.53;5042492;28;20484;-71
2021/07/31 07:19:15;;;;;;;2.40;0.80;;;;;;;31.68;28.54;98317.94;5049842;28;20047;-73
2021/07/31 07:21:40;;;;;;;2.15;0.70;;;;;;;27.75;33.34;98322.38;5050676;28;20070;-71
2021/07/31 07:24:06;;;;;;;3.70;0.88;;;;;;;24.61;39.45;98332.75;5045435;28;20463;-72
2021/07/31 07:26:31;;;;;;;3.97;0.80;;;;;;;23.56;41.69;98335.91;5040671;28;20024;-68
2021/07/31 07:28:57;;;;;;;3.38;0.80;;;;;;;22.49;43.20;98335.38;5043160;28;20025;-69
2021/07/31 07:31:22;;;;;;;2.72;0.75;;;;;;;22.70;42.87;98329.63;5043266;28;20562;-70
2021/07/31 07:33:47;;;;;;;6.63;1.17;;;;;;;22.27;45.03;98332.34;5046867;28;20032;-70
2021/07/31 07:36:16;;;;;;;4.40;0.90;;;;;;;22.20;45.56;98334.59;5049531;28;20542;-70
2021/07/31 07:38:41;;;;;;;4.55;1.17;;;;;;;24.03;42.52;98327.72;5050013;28;20024;-71
2021/07/31 07:41:08;;;;;;;3.08;0.90;;;;;;;25.58;38.40;98322.34;5050724;28;20032;-75
2021/07/31 07:43:34;;;;;;;2.47;0.77;;;;;;;24.25;40.57;98327.88;5025707;28;20029;-71
2021/07/31 07:45:59;;;;;;;3.65;1.00;;;;;;;24.80;40.50;98329.06;5044049;28;20040;-71
2021/07/31 07:48:25;;;;;;;2.75;0.90;;;;;;;25.96;37.86;98324.78;5045935;28;20029;-71
2021/07/31 07:50:50;;;;;;;10.30;1.17;;;;;;;25.83;37.90;98322.84;5045815;28;20106;-72
2021/07/31 07:53:16;;;;;;;6.05;0.90;;;;;;;25.76;38.69;98322.50;5045473;28;20513;-72
2021/07/31 07:55:41;;;;;;;7.45;1.50;;;;;;;25.83;37.78;98324.78;5043077;28;20029;-71
2021/07/31 07:58:08;;;;;;;8.93;1.13;;;;;;;25.07;39.96;98329.03;5042244;28;20422;-70
2021/07/31 08:00:33;;;;;;;4.32;1.10;;;;;;;25.52;39.76;98320.84;5046198;28;20048;-71
2021/07/31 08:02:58;;;;;;;3.60;0.90;;;;;;;25.47;39.30;98326.50;5044800;28;20470;-73
2021/07/31 08:05:24;;;;;;;5.40;0.90;;;;;;;25.11;40.35;98335.56;5054287;22;20509;-70
2021/07/31 08:07:49;;;;;;;4.88;1.10;;;;;;;26.86;37.11;98307.09;5043725;28;20104;-71
2021/07/31 08:10:14;;;;;;;2.65;1.15;;;;;;;26.86;37.62;98319.00;5046990;28;20039;-70
2021/07/31 08:12:40;;;;;;;3.83;1.20;;;;;;;25.79;38.32;98316.31;5049892;28;20027;-70
2021/07/31 08:15:06;;;;;;;2.35;0.80;;;;;;;28.23;34.45;98314.94;5050529;28;20050;-71
2021/07/31 08:17:31;;;;;;;8.35;1.10;;;;;;;27.94;34.40;98324.03;5038858;28;20027;-67
2021/07/31 08:19:57;;;;;;;5.65;0.90;;;;;;;28.46;33.08;98323.09;5053890;28;20029;-67
2021/07/31 08:22:22;;;;;;;2.05;0.70;;;;;;;27.37;34.72;98310.28;5035173;28;20032;-67
2021/07/31 08:24:47;;;;;;;3.15;1.13;;;;;;;26.93;37.79;98312.16;5049816;28;20029;-71
2021/07/31 08:27:12;;;;;;;2.83;0.90;;;;;;;26.95;37.45;98324.56;5042022;28;20055;-67
2021/07/31 08:29:38;;;;;;;4.57;0.95;;;;;;;26.26;37.73;98316.78;5053084;28;20055;-69
2021/07/31 08:32:03;;;;;;;6.00;0.85;;;;;;;24.92;40.66;98318.28;5053302;28;20413;-68
2021/07/31 08:34:29;;;;;;;3.17;0.65;;;;;;;24.65;40.93;98328.25;5051859;28;20036;-68
2021/07/31 08:36:59;;;;;;;3.90;1.00;;;;;;;24.57;41.43;98289.41;5034430;28;20035;-68
2021/07/31 08:39:24;;;;;;;2.97;0.88;;;;;;;24.56;40.62;98323.75;5052637;28;20029;-68
2021/07/31 08:41:50;;;;;;;3.63;0.80;;;;;;;23.97;41.63;98320.63;5024013;28;20056;-68
2021/07/31 08:44:15;;;;;;;4.00;1.00;;;;;;;23.56;41.39;98305.53;5029027;28;20056;-69
2021/07/31 08:46:43;;;;;;;5.63;0.90;;;;;;;23.35;42.17;98307.81;5035329;28;20032;-68
2021/07/31 08:49:09;;;;;;;3.60;0.80;;;;;;;22.78;43.90;98331.72;5035039;28;20021;-70
2021/07/31 08:51:35;;;;;;;8.18;1.05;;;;;;;23.79;42.21;98328.69;5048629;28;20383;-70
2021/07/31 08:54:01;;;;;;;3.38;0.93;;;;;;;23.05;42.58;98289.75;5045020;28;20076;-71
2021/07/31 08:56:27;;;;;;;6.18;0.90;;;;;;;22.97;42.89;98331.78;5052083;28;20681;-71
2021/07/31 08:58:52;;;;;;;3.95;0.93;;;;;;;25.45;39.22;98287.22;5050592;28;20104;-74
2021/07/31 09:01:18;;;;;;;2.78;0.73;;;;;;;25.36;38.29;98317.63;5035842;28;20122;-73
2021/07/31 09:03:48;;;;;;;3.42;0.93;;;;;;;24.97;37.97;98304.34;5052667;28;20414;-72
2021/07/31 09:06:32;;;;;;;1.90;0.80;;;;;;;26.32;37.03;98315.50;5050875;28;20021;-68
2021/07/31 09:08:59;;;;;;;1.85;0.75;;;;;;;29.82;32.11;98307.00;5051982;28;20499;-70
2021/07/31 09:11:26;;;;;;;3.25;0.82;;;;;;;29.74;32.64;98293.13;5050904;28;20085;-67
2021/07/31 09:14:15;;;;;;;5.57;1.00;;;;;;;28.80;32.82;98313.78;5051323;28;20025;-67
2021/07/31 09:16:42;;;;;;;4.22;1.10;;;;;;;27.33;35.11;98321.25;5050977;28;20104;-67
2021/07/31 09:19:09;;;;;;;3.45;1.30;;;;;;;26.01;37.08;98319.06;5052202;28;20032;-68
2021/07/31 09:21:35;;;;;;;5.45;1.05;;;;;;;24.84;38.00;98302.41;5052576;28;20047;-67
2021/07/31 09:24:01;;;;;;;2.22;0.65;;;;;;;25.48;36.20;98307.91;5051820;28;20028;-67
2021/07/31 09:26:36;;;;;;;2.58;0.90;;;;;;;27.91;34.11;98308.00;5043782;28;20025;-67
2021/07/31 09:29:06;;;;;;;1.80;0.60;;;;;;;29.14;32.22;98298.84;5044416;28;20025;-66
2021/07/31 09:31:32;;;;;;;5.55;0.90;;;;;;;29.45;31.99;98287.31;5044581;28;20017;-67
2021/07/31 09:34:00;;;;;;;2.45;1.10;;;;;;;26.23;35.82;98286.94;5025021;28;20047;-72
2021/07/31 09:36:37;;;;;;;3.80;0.90;;;;;;;28.60;32.80;98279.97;5044001;28;20040;-69
2021/07/31 09:39:05;;;;;;;2.92;0.77;;;;;;;30.77;29.86;98293.94;5043353;28;20089;-69
2021/07/31 09:41:39;;;;;;;4.05;0.75;;;;;;;32.56;27.45;98300.34;5046715;28;20028;-67
2021/07/31 09:44:16;;;;;;;6.30;1.10;;;;;;;31.59;28.36;98292.88;5043277;28;20029;-70
2021/07/31 09:46:49;;;;;;;2.70;0.93;;;;;;;31.53;28.53;98294.31;5025592;28;20056;-68
2021/07/31 09:49:19;;;;;;;5.53;1.50;;;;;;;33.33;28.53;98295.00;5044457;28;20531;-70
2021/07/31 09:51:46;;;;;;;3.08;0.82;;;;;;;32.85;26.98;98285.84;5029875;28;20040;-70
2021/07/31 09:54:15;;;;;;;3.63;1.15;;;;;;;32.67;26.82;98285.44;5051388;28;20025;-69
2021/07/31 09:56:54;;;;;;;2.38;0.95;;;;;;;29.45;31.21;98280.91;5032180;28;20022;-67
2021/07/31 09:59:21;;;;;;;2.72;0.80;;;;;;;29.13;32.37;98288.03;5034515;28;20044;-68
2021/07/31 10:02:00;;;;;;;4.22;0.88;;;;;;;26.84;33.18;98268.53;5049166;28;20025;-67
2021/07/31 10:04:25;;;;;;;2.70;0.90;;;;;;;27.91;32.91;98274.63;5050182;28;20033;-67
2021/07/31 10:06:52;;;;;;;3.85;1.48;;;;;;;26.03;35.36;98268.88;5049778;28;20048;-67
2021/07/31 10:09:18;;;;;;;2.10;0.93;;;;;;;26.96;34.36;98276.25;5051389;28;20082;-67
2021/07/31 10:11:44;;;;;;;3.97;0.88;;;;;;;27.46;31.93;98270.25;5051321;28;20032;-67
2021/07/31 10:14:11;;;;;;;1.73;0.70;;;;;;;30.70;30.36;98274.16;5051790;28;20025;-66
2021/07/31 10:16:48;;;;;;;1.85;0.73;;;;;;;30.60;28.19;98274.59;5048893;28;20032;-67
2021/07/31 10:19:13;;;;;;;5.85;1.10;;;;;;;30.32;29.12;98269.72;5049315;28;20025;-67
2021/07/31 10:21:41;;;;;;;6.13;1.00;;;;;;;31.87;27.70;98258.50;5049500;28;20025;-69
2021/07/31 10:24:08;;;;;;;3.33;0.77;;;;;;;32.43;27.49;98274.38;5047436;28;20032;-68
2021/07/31 10:26:37;;;;;;;7.10;1.02;;;;;;;30.41;29.51;98277.16;5047527;28;20028;-66
2021/07/31 10:29:27;;;;;;;3.70;1.27;;;;;;;30.34;30.00;98275.78;5042666;28;20021;-67
2021/07/31 10:31:56;;;;;;;1.77;0.77;;;;;;;29.68;31.22;98273.00;5045515;28;20032;-64
2021/07/31 10:34:48;;;;;;;3.03;0.98;;;;;;;29.84;30.09;98270.38;5040826;28;20497;-65
2021/07/31 10:37:28;;;;;;;5.63;1.00;;;;;;;30.88;28.94;98271.16;5040559;28;20029;-65
2021/07/31 10:40:04;;;;;;;1.35;0.80;;;;;;;30.48;28.56;98269.03;5052730;28;20024;-66
2021/07/31 10:42:50;;;;;;;5.60;0.90;;;;;;;29.78;30.35;98269.78;5053537;28;20089;-65
2021/07/31 10:45:28;;;;;;;5.15;0.90;;;;;;;31.64;28.62;98270.25;5046175;28;20040;-65
2021/07/31 10:47:58;;;;;;;3.30;1.05;;;;;;;32.47;28.09;98270.53;5052626;28;20074;-67
2021/07/31 10:50:27;;;;;;;3.67;0.80;;;;;;;32.79;27.07;98270.50;5045752;28;20490;-65
2021/07/31 10:52:53;;;;;;;2.70;0.90;;;;;;;31.59;28.54;98264.91;5052574;28;20167;-65
2021/07/31 10:55:26;;;;;;;3.47;0.80;;;;;;;32.25;27.10;98268.31;5053489;28;20083;-65
2021/07/31 10:57:52;;;;;;;1.63;0.70;;;;;;;31.52;27.79;98264.75;5041528;28;20562;-65
2021/07/31 11:00:34;;;;;;;3.45;1.00;;;;;;;29.25;30.56;98276.97;5051034;28;20243;-64
2021/07/31 11:03:05;;;;;;;3.47;1.02;;;;;;;30.45;29.46;98256.59;5051113;28;20027;-64
2021/07/31 11:05:51;;;;;;;2.58;0.90;;;;;;;28.59;31.87;98266.41;5050831;28;20429;-63
2021/07/31 11:08:21;;;;;;;3.55;1.13;;;;;;;29.89;31.43;98268.22;5043456;28;20423;-63
2021/07/31 11:11:16;;;;;;;3.47;1.05;;;;;;;30.89;30.47;98256.00;5048249;28;20036;-63
2021/07/31 11:13:42;;;;;;;4.30;1.10;;;;;;;32.70;28.54;98264.28;5023435;28;20044;-63
2021/07/31 11:16:09;;;;;;;3.60;0.97;;;;;;;31.73;28.59;98269.28;5051774;28;20055;-63
2021/07/31 11:18:42;;;;;;;2.55;0.95;;;;;;;31.18;28.05;98275.28;5047053;28;20045;-63
2021/07/31 11:21:12;;;;;;;2.20;0.70;;;;;;;31.60;27.04;98266.56;5043935;28;20020;-63
2021/07/31 11:24:04;;;;;;;2.08;1.00;;;;;;;31.96;27.29;98267.56;5041057;28;20033;-63
2021/07/31 11:26:31;;;;;;;1.58;0.75;;;;;;;32.84;27.28;98261.00;5046634;28;20025;-63
2021/07/31 11:28:57;;;;;;;2.60;0.98;;;;;;;33.85;26.18;98256.38;5044935;28;20030;-63
2021/07/31 11:31:23;;;;;;;1.88;0.95;;;;;;;31.39;28.32;98277.94;5044949;28;20469;-63
2021/07/31 11:34:06;;;;;;;4.85;0.80;;;;;;;33.02;27.54;98272.66;5046253;28;20020;-64